createdAt,value
2018-09-02T00:00:32.545Z,16.40
2018-09-02T00:03:01.657Z,16.40
2018-09-02T00:05:30.018Z,16.30
2018-09-02T00:07:58.885Z,16.20
2018-09-02T00:10:27.240Z,16.30
2018-09-02T00:12:55.514Z,16.20
2018-09-02T00:15:23.745Z,16.40
2018-09-02T00:17:52.205Z,16.40
2018-09-02T00:20:20.724Z,16.40
2018-09-02T00:22:49.002Z,16.50
2018-09-02T00:25:17.306Z,16.30
2018-09-02T00:27:45.685Z,16.30
2018-09-02T00:30:13.955Z,16.30
2018-09-02T00:32:42.205Z,17.20
2018-09-02T00:35:10.469Z,16.50
2018-09-02T00:37:38.732Z,16.40
2018-09-02T00:40:06.935Z,16.50
2018-09-02T00:42:35.158Z,16.40
2018-09-02T00:45:03.388Z,16.30
2018-09-02T00:47:31.717Z,16.10
2018-09-02T00:49:59.939Z,16.00
2018-09-02T00:52:28.165Z,16.20
2018-09-02T00:54:56.374Z,16.30
2018-09-02T00:57:24.638Z,16.30
2018-09-02T00:59:52.911Z,16.10
2018-09-02T01:02:21.159Z,16.00
2018-09-02T01:04:49.430Z,15.90
2018-09-02T01:07:17.685Z,15.80
2018-09-02T01:09:45.964Z,15.90
2018-09-02T01:12:14.249Z,15.90
2018-09-02T01:14:42.555Z,15.80
2018-09-02T01:17:10.773Z,15.70
2018-09-02T01:19:39.027Z,15.80
2018-09-02T01:22:07.292Z,15.80
2018-09-02T01:24:35.562Z,15.70
2018-09-02T01:27:03.801Z,15.90
2018-09-02T01:29:32.273Z,15.80
2018-09-02T01:32:00.496Z,15.90
2018-09-02T01:34:28.734Z,15.90
2018-09-02T01:36:56.997Z,15.90
2018-09-02T01:39:25.182Z,15.80
2018-09-02T01:41:53.445Z,15.80
2018-09-02T01:44:21.650Z,15.70
2018-09-02T01:46:49.856Z,15.60
2018-09-02T01:49:18.069Z,15.50
2018-09-02T01:51:46.346Z,15.50
2018-09-02T01:54:14.649Z,15.40
2018-09-02T01:56:42.907Z,15.40
2018-09-02T01:59:11.125Z,15.50
2018-09-02T02:01:39.453Z,15.70
2018-09-02T02:04:07.773Z,15.50
2018-09-02T02:06:36.059Z,15.40
2018-09-02T02:09:05.825Z,15.50
2018-09-02T02:11:34.054Z,15.60
2018-09-02T02:14:02.279Z,15.60
2018-09-02T02:16:30.501Z,15.60
2018-09-02T02:18:58.772Z,15.60
2018-09-02T02:21:26.970Z,15.40
2018-09-02T02:23:55.237Z,15.50
2018-09-02T02:26:23.530Z,15.60
2018-09-02T02:28:51.888Z,15.50
2018-09-02T02:31:20.157Z,15.50
2018-09-02T02:33:48.449Z,15.30
2018-09-02T02:36:16.673Z,15.40
2018-09-02T02:38:44.919Z,15.50
2018-09-02T02:41:13.125Z,15.50
2018-09-02T02:43:41.442Z,15.40
2018-09-02T02:46:09.661Z,15.60
2018-09-02T02:48:37.846Z,15.40
2018-09-02T02:51:06.150Z,15.20
2018-09-02T02:53:34.394Z,15.20
2018-09-02T02:56:02.605Z,15.30
2018-09-02T02:58:30.826Z,15.20
2018-09-02T03:00:59.066Z,15.20
2018-09-02T03:03:27.313Z,15.10
2018-09-02T03:05:55.641Z,15.10
2018-09-02T03:08:23.846Z,15.00
2018-09-02T03:10:52.167Z,15.20
2018-09-02T03:13:20.342Z,15.30
2018-09-02T03:15:48.589Z,15.40
2018-09-02T03:18:16.792Z,15.30
2018-09-02T03:20:45.013Z,15.30
2018-09-02T03:23:13.206Z,15.30
2018-09-02T03:25:41.533Z,15.30
2018-09-02T03:28:09.759Z,15.20
2018-09-02T03:30:38.032Z,15.10
2018-09-02T03:33:06.455Z,15.10
2018-09-02T03:35:34.707Z,15.10
2018-09-02T03:38:02.921Z,15.10
2018-09-02T03:40:31.122Z,15.20
2018-09-02T03:42:59.381Z,15.10
2018-09-02T03:45:27.616Z,15.30
2018-09-02T03:47:56.610Z,15.40
2018-09-02T03:50:24.970Z,15.30
2018-09-02T03:52:53.250Z,15.20
2018-09-02T03:55:21.530Z,15.30
2018-09-02T03:57:49.858Z,15.10
2018-09-02T04:00:18.053Z,15.10
2018-09-02T04:02:46.350Z,15.20
2018-09-02T04:05:14.605Z,15.10
2018-09-02T04:07:42.894Z,15.30
2018-09-02T04:10:11.081Z,15.30
2018-09-02T04:12:39.366Z,15.40
2018-09-02T04:15:07.725Z,15.40
2018-09-02T04:17:35.938Z,15.20
2018-09-02T04:20:04.478Z,15.30
2018-09-02T04:22:32.687Z,15.40
2018-09-02T04:25:00.995Z,15.20
2018-09-02T04:27:29.277Z,15.20
2018-09-02T04:29:57.507Z,15.20
2018-09-02T04:32:25.804Z,15.00
2018-09-02T04:34:54.093Z,15.00
2018-09-02T04:37:22.360Z,14.90
2018-09-02T04:39:50.756Z,14.80
2018-09-02T04:42:18.989Z,14.60
2018-09-02T04:44:47.213Z,14.60
2018-09-02T04:47:15.542Z,14.70
2018-09-02T04:49:43.755Z,14.80
2018-09-02T04:52:12.027Z,14.50
2018-09-02T04:54:40.241Z,14.40
2018-09-02T04:57:08.441Z,14.30
2018-09-02T04:59:36.631Z,14.40
2018-09-02T05:02:04.898Z,14.50
2018-09-02T05:04:33.094Z,14.60
2018-09-02T05:07:01.322Z,14.60
2018-09-02T05:09:29.596Z,14.50
2018-09-02T05:11:57.789Z,14.60
2018-09-02T05:14:26.091Z,14.70
2018-09-02T05:16:54.299Z,14.60
2018-09-02T05:19:22.538Z,14.80
2018-09-02T05:21:50.781Z,14.80
2018-09-02T05:24:19.087Z,14.90
2018-09-02T05:26:47.308Z,14.80
2018-09-02T05:29:15.534Z,14.60
2018-09-02T05:31:43.839Z,14.60
2018-09-02T05:34:12.036Z,14.70
2018-09-02T05:36:40.325Z,14.90
2018-09-02T05:39:09.750Z,15.00
2018-09-02T05:41:38.037Z,15.00
2018-09-02T05:44:06.402Z,15.00
2018-09-02T05:46:34.493Z,15.20
2018-09-02T05:49:02.694Z,15.40
2018-09-02T05:51:30.897Z,15.40
2018-09-02T05:53:59.165Z,15.40
2018-09-02T05:56:27.420Z,15.40
2018-09-02T05:58:55.660Z,15.50
2018-09-02T06:01:23.913Z,15.70
2018-09-02T06:03:52.166Z,15.80
2018-09-02T06:06:20.371Z,15.90
2018-09-02T06:08:48.569Z,15.90
2018-09-02T06:11:16.797Z,15.80
2018-09-02T06:13:45.066Z,15.70
2018-09-02T06:16:13.397Z,15.80
2018-09-02T06:18:41.662Z,15.90
2018-09-02T06:21:09.933Z,15.90
2018-09-02T06:23:38.209Z,15.80
2018-09-02T06:26:06.414Z,15.80
2018-09-02T06:28:34.682Z,15.90
2018-09-02T06:31:03.240Z,16.00
2018-09-02T06:33:31.476Z,16.20
2018-09-02T06:35:59.671Z,16.30
2018-09-02T06:38:27.931Z,16.00
2018-09-02T06:40:56.153Z,16.30
2018-09-02T06:43:24.369Z,16.30
2018-09-02T06:45:52.640Z,16.50
2018-09-02T06:48:21.252Z,16.40
2018-09-02T06:50:49.833Z,16.60
2018-09-02T06:53:18.158Z,16.70
2018-09-02T06:55:46.386Z,16.50
2018-09-02T06:58:14.625Z,16.90
2018-09-02T07:00:42.874Z,16.70
2018-09-02T07:03:11.202Z,16.70
2018-09-02T07:05:40.914Z,17.00
2018-09-02T07:08:10.734Z,17.10
2018-09-02T07:10:39.512Z,17.40
2018-09-02T07:13:07.767Z,17.20
2018-09-02T07:15:36.021Z,17.20
2018-09-02T07:18:04.273Z,17.40
2018-09-02T07:20:33.149Z,17.50
2018-09-02T07:25:23.221Z,17.60
2018-09-02T07:27:51.437Z,17.60
2018-09-02T07:30:19.676Z,18.10
2018-09-02T07:32:47.933Z,18.10
2018-09-02T07:35:16.258Z,17.90
2018-09-02T07:37:44.630Z,18.00
2018-09-02T07:40:13.057Z,18.10
2018-09-02T07:42:41.277Z,18.30
2018-09-02T07:45:10.238Z,18.60
2018-09-02T07:47:38.484Z,18.60
2018-09-02T07:50:06.683Z,18.60
2018-09-02T07:52:34.933Z,18.50
2018-09-02T07:55:03.197Z,18.70
2018-09-02T07:57:31.472Z,18.60
2018-09-02T07:59:59.701Z,19.00
2018-09-02T08:02:27.965Z,18.80
2018-09-02T08:04:56.173Z,18.90
2018-09-02T08:07:24.482Z,19.20
2018-09-02T08:09:52.704Z,19.60
2018-09-02T08:12:21.028Z,19.70
2018-09-02T08:14:49.218Z,19.80
2018-09-02T08:17:17.517Z,19.80
2018-09-02T08:19:45.902Z,20.00
2018-09-02T08:22:14.153Z,19.70
2018-09-02T08:24:42.465Z,19.90
2018-09-02T08:27:10.709Z,19.90
2018-09-02T08:29:38.977Z,19.50
2018-09-02T08:32:07.235Z,19.70
2018-09-02T08:34:35.433Z,19.70
2018-09-02T08:37:03.758Z,19.10
2018-09-02T08:39:32.009Z,19.70
2018-09-02T08:42:00.292Z,20.20
2018-09-02T08:44:28.502Z,20.40
2018-09-02T08:46:56.733Z,20.70
2018-09-02T08:49:24.949Z,21.10
2018-09-02T08:51:53.236Z,21.20
2018-09-02T08:54:21.440Z,21.00
2018-09-02T08:56:49.916Z,21.10
2018-09-02T08:59:18.159Z,21.40
2018-09-02T09:01:46.523Z,21.50
2018-09-02T09:04:14.692Z,21.90
2018-09-02T09:06:42.946Z,22.50
2018-09-02T09:09:11.326Z,23.30
2018-09-02T09:11:39.469Z,23.80
2018-09-02T09:14:07.741Z,24.50
2018-09-02T09:16:35.932Z,25.00
2018-09-02T09:19:04.270Z,24.90
2018-09-02T09:21:32.509Z,25.30
2018-09-02T09:24:00.862Z,25.50
2018-09-02T09:26:29.110Z,25.80
2018-09-02T09:28:57.333Z,25.50
2018-09-02T09:31:25.561Z,25.20
2018-09-02T09:33:53.783Z,25.90
2018-09-02T09:36:22.126Z,26.30
2018-09-02T09:38:50.345Z,26.30
2018-09-02T09:41:18.589Z,25.90
2018-09-02T09:43:46.870Z,26.00
2018-09-02T09:46:15.101Z,26.30
2018-09-02T09:48:43.302Z,25.80
2018-09-02T09:51:11.613Z,25.80
2018-09-02T09:53:39.858Z,26.60
2018-09-02T09:56:08.146Z,26.60
2018-09-02T09:58:36.355Z,25.80
2018-09-02T10:01:04.562Z,25.60
2018-09-02T10:03:33.853Z,26.00
2018-09-02T10:08:36.769Z,26.10
2018-09-02T10:11:05.013Z,26.20
2018-09-02T10:13:33.232Z,27.00
2018-09-02T10:16:01.454Z,25.90
2018-09-02T10:18:29.682Z,25.20
2018-09-02T10:20:57.920Z,25.70
2018-09-02T10:23:26.189Z,26.40
2018-09-02T10:25:54.557Z,27.00
2018-09-02T10:28:22.836Z,26.70
2018-09-02T10:30:51.097Z,26.90
2018-09-02T10:33:19.477Z,26.30
2018-09-02T10:35:47.704Z,25.10
2018-09-02T10:38:15.961Z,25.70
2018-09-02T10:40:44.189Z,25.30
2018-09-02T10:43:12.465Z,25.60
2018-09-02T10:45:40.831Z,26.00
2018-09-02T10:48:09.068Z,26.30
2018-09-02T10:50:37.269Z,26.00
2018-09-02T10:53:05.564Z,27.00
2018-09-02T10:55:33.830Z,26.80
2018-09-02T10:58:02.121Z,25.30
2018-09-02T11:00:30.375Z,26.10
2018-09-02T11:02:58.570Z,26.80
2018-09-02T11:05:26.798Z,25.20
2018-09-02T11:07:55.117Z,25.20
2018-09-02T11:10:23.318Z,24.10
2018-09-02T11:12:51.526Z,24.70
2018-09-02T11:15:19.770Z,25.50
2018-09-02T11:17:47.998Z,25.60
2018-09-02T11:20:16.254Z,25.80
2018-09-02T11:22:44.466Z,26.80
2018-09-02T11:25:12.788Z,27.40
2018-09-02T11:27:41.026Z,26.80
2018-09-02T11:30:09.258Z,27.00
2018-09-02T11:32:37.615Z,25.80
2018-09-02T11:35:05.969Z,25.30
2018-09-02T11:37:34.192Z,25.20
2018-09-02T11:40:02.713Z,25.30
2018-09-02T11:42:30.961Z,24.60
2018-09-02T11:44:59.239Z,24.80
2018-09-02T11:47:27.484Z,25.00
2018-09-02T11:49:55.814Z,24.90
2018-09-02T11:52:24.040Z,24.50
2018-09-02T11:54:52.269Z,24.10
2018-09-02T11:57:21.150Z,24.80
2018-09-02T11:59:49.366Z,24.40
2018-09-02T12:02:17.643Z,24.60
2018-09-02T12:04:45.930Z,24.00
2018-09-02T12:07:14.221Z,24.00
2018-09-02T12:09:42.586Z,24.00
2018-09-02T12:12:10.824Z,24.40
2018-09-02T12:14:39.212Z,23.80
2018-09-02T12:17:07.337Z,24.00
2018-09-02T12:19:35.666Z,24.30
2018-09-02T12:22:04.517Z,24.20
2018-09-02T12:24:32.786Z,24.70
2018-09-02T12:27:01.103Z,24.90
2018-09-02T12:29:29.330Z,25.30
2018-09-02T12:31:57.674Z,25.20
2018-09-02T12:34:25.992Z,24.40
2018-09-02T12:36:54.286Z,24.50
2018-09-02T12:39:22.585Z,24.30
2018-09-02T12:41:50.798Z,24.00
2018-09-02T12:44:19.071Z,24.30
2018-09-02T12:46:47.291Z,24.10
2018-09-02T12:49:15.515Z,24.00
2018-09-02T12:51:43.743Z,23.80
2018-09-02T12:54:12.126Z,24.60
2018-09-02T12:56:40.262Z,25.20
2018-09-02T12:59:08.534Z,25.20
2018-09-02T13:01:36.765Z,25.00
2018-09-02T13:04:05.012Z,24.80
2018-09-02T13:06:33.230Z,24.60
2018-09-02T13:09:01.492Z,24.50
2018-09-02T13:11:29.836Z,24.30
2018-09-02T13:13:58.207Z,24.30
2018-09-02T13:16:26.493Z,24.40
2018-09-02T13:18:54.818Z,24.40
2018-09-02T13:21:23.073Z,24.30
2018-09-02T13:23:51.374Z,24.30
2018-09-02T13:26:19.565Z,24.00
2018-09-02T13:28:47.799Z,23.80
2018-09-02T13:31:16.085Z,24.00
2018-09-02T13:33:44.405Z,24.40
2018-09-02T13:36:12.711Z,24.40
2018-09-02T13:38:40.965Z,24.90
2018-09-02T13:41:09.270Z,24.10
2018-09-02T13:43:37.545Z,24.20
2018-09-02T13:46:05.879Z,24.50
2018-09-02T13:48:34.208Z,25.20
2018-09-02T13:51:02.374Z,25.00
2018-09-02T13:53:30.590Z,24.60
2018-09-02T13:55:58.828Z,24.70
2018-09-02T13:58:27.030Z,24.80
2018-09-02T14:00:55.359Z,25.10
2018-09-02T14:03:23.549Z,25.00
2018-09-02T14:05:51.777Z,25.00
2018-09-02T14:08:20.087Z,24.80
2018-09-02T14:10:48.365Z,24.70
2018-09-02T14:13:16.646Z,24.50
2018-09-02T14:15:44.910Z,24.60
2018-09-02T14:18:13.106Z,25.00
2018-09-02T14:20:41.326Z,24.20
2018-09-02T14:23:09.549Z,24.60
2018-09-02T14:25:37.749Z,24.80
2018-09-02T14:28:06.001Z,24.70
2018-09-02T14:30:34.201Z,24.50
2018-09-02T14:33:02.415Z,24.80
2018-09-02T14:35:30.621Z,24.60
2018-09-02T14:37:59.209Z,24.70
2018-09-02T14:40:27.442Z,24.60
2018-09-02T14:42:56.122Z,24.50
2018-09-02T14:45:24.385Z,24.60
2018-09-02T14:47:52.662Z,24.70
2018-09-02T14:50:20.863Z,24.90
2018-09-02T14:52:49.161Z,24.90
2018-09-02T14:55:17.369Z,24.70
2018-09-02T14:57:45.589Z,24.10
2018-09-02T15:00:13.926Z,24.00
2018-09-02T15:02:42.198Z,24.30
2018-09-02T15:05:11.031Z,23.90
2018-09-02T15:07:39.288Z,23.80
2018-09-02T15:10:07.582Z,23.90
2018-09-02T15:12:35.843Z,24.00
2018-09-02T15:15:04.102Z,24.00
2018-09-02T15:17:32.397Z,24.00
2018-09-02T15:20:00.679Z,24.10
2018-09-02T15:22:28.891Z,24.00
2018-09-02T15:24:57.423Z,24.00
2018-09-02T15:27:25.650Z,24.20
2018-09-02T15:29:53.895Z,24.10
2018-09-02T15:32:22.151Z,23.90
2018-09-02T15:34:51.327Z,23.80
2018-09-02T15:37:19.539Z,23.80
2018-09-02T15:39:47.878Z,23.90
2018-09-02T15:42:16.121Z,23.80
2018-09-02T15:44:44.326Z,24.00
2018-09-02T15:47:12.636Z,24.00
2018-09-02T15:49:40.873Z,23.90
2018-09-02T15:52:09.141Z,23.80
2018-09-02T15:54:37.363Z,23.90
2018-09-02T15:57:05.609Z,23.70
2018-09-02T15:59:33.821Z,23.50
2018-09-02T16:02:02.453Z,23.40
2018-09-02T16:04:30.662Z,23.30
2018-09-02T16:06:58.878Z,23.50
2018-09-02T16:09:27.181Z,23.30
2018-09-02T16:11:55.514Z,23.30
2018-09-02T16:14:24.558Z,23.20
2018-09-02T16:16:52.810Z,23.40
2018-09-02T16:19:21.057Z,23.20
2018-09-02T16:21:49.290Z,23.30
2018-09-02T16:24:17.530Z,23.00
2018-09-02T16:26:45.980Z,23.20
2018-09-02T16:29:14.219Z,23.20
2018-09-02T16:31:42.444Z,23.50
2018-09-02T16:34:10.648Z,23.60
2018-09-02T16:36:38.933Z,23.70
2018-09-02T16:39:07.861Z,23.50
2018-09-02T16:41:36.150Z,23.20
2018-09-02T16:44:05.077Z,23.00
2018-09-02T16:46:33.379Z,23.00
2018-09-02T16:49:01.709Z,23.10
2018-09-02T16:51:29.942Z,23.10
2018-09-02T16:53:58.268Z,23.00
2018-09-02T16:56:26.508Z,23.20
2018-09-02T16:58:54.734Z,23.00
2018-09-02T17:01:23.029Z,22.90
2018-09-02T17:03:55.671Z,22.70
2018-09-02T17:06:23.886Z,22.70
2018-09-02T17:08:52.205Z,22.50
2018-09-02T17:11:20.539Z,22.60
2018-09-02T17:13:48.761Z,22.80
2018-09-02T17:16:16.994Z,22.60
2018-09-02T17:18:45.271Z,22.80
2018-09-02T17:21:13.512Z,22.80
2018-09-02T17:23:41.781Z,22.80
2018-09-02T17:26:10.224Z,22.70
2018-09-02T17:28:38.425Z,22.40
2018-09-02T17:31:06.845Z,22.40
2018-09-02T17:33:35.175Z,22.50
2018-09-02T17:36:03.422Z,22.50
2018-09-02T17:38:31.647Z,22.30
2018-09-02T17:40:59.949Z,22.10
2018-09-02T17:43:28.179Z,22.20
2018-09-02T17:45:56.513Z,22.10
2018-09-02T17:48:24.682Z,22.30
2018-09-02T17:50:52.944Z,22.00
2018-09-02T17:53:21.178Z,22.10
2018-09-02T17:55:49.558Z,22.10
2018-09-02T17:58:17.730Z,22.00
2018-09-02T18:00:49.266Z,21.90
2018-09-02T18:03:17.594Z,21.70
2018-09-02T18:05:45.814Z,21.70
2018-09-02T18:08:14.082Z,21.60
2018-09-02T18:10:42.290Z,21.50
2018-09-02T18:13:10.524Z,21.50
2018-09-02T18:15:38.734Z,21.60
2018-09-02T18:18:06.956Z,21.50
2018-09-02T18:20:35.249Z,21.30
2018-09-02T18:23:03.530Z,21.30
2018-09-02T18:25:31.920Z,21.20
2018-09-02T18:28:03.635Z,21.20
2018-09-02T18:30:31.878Z,21.20
2018-09-02T18:33:00.134Z,21.20
2018-09-02T18:35:28.358Z,21.10
2018-09-02T18:37:56.728Z,21.00
2018-09-02T18:40:24.965Z,21.10
2018-09-02T18:42:53.218Z,20.80
2018-09-02T18:45:21.503Z,20.70
2018-09-02T18:47:49.905Z,20.80
2018-09-02T18:50:18.173Z,20.80
2018-09-02T18:52:46.456Z,20.70
2018-09-02T18:55:14.711Z,20.40
2018-09-02T18:57:43.012Z,20.50
2018-09-02T19:00:11.278Z,20.50
2018-09-02T19:02:39.549Z,20.50
2018-09-02T19:05:07.777Z,20.50
2018-09-02T19:07:36.103Z,20.30
2018-09-02T19:10:04.357Z,20.30
2018-09-02T19:12:32.579Z,20.20
2018-09-02T19:15:00.803Z,20.10
2018-09-02T19:17:29.098Z,20.20
2018-09-02T19:19:57.346Z,20.00
2018-09-02T19:22:25.650Z,20.00
2018-09-02T19:24:53.937Z,19.80
2018-09-02T19:27:22.257Z,20.00
2018-09-02T19:29:50.687Z,20.10
2018-09-02T19:32:18.798Z,20.10
2018-09-02T19:34:47.041Z,20.00
2018-09-02T19:37:15.330Z,20.00
2018-09-02T19:39:43.583Z,20.00
2018-09-02T19:42:11.854Z,19.90
2018-09-02T19:44:40.078Z,19.70
2018-09-02T19:47:08.354Z,19.80
2018-09-02T19:49:36.774Z,19.80
2018-09-02T19:52:05.591Z,19.90
2018-09-02T19:54:33.857Z,19.80
2018-09-02T19:57:02.078Z,19.80
2018-09-02T19:59:30.302Z,19.90
2018-09-02T20:01:58.526Z,19.90
2018-09-02T20:04:26.713Z,19.80
2018-09-02T20:06:54.942Z,19.70
2018-09-02T20:09:23.273Z,19.80
2018-09-02T20:11:51.509Z,19.70
2018-09-02T20:14:19.722Z,19.70
2018-09-02T20:16:47.953Z,19.70
2018-09-02T20:19:16.169Z,19.60
2018-09-02T20:21:44.393Z,19.60
2018-09-02T20:24:12.635Z,19.60
2018-09-02T20:26:40.902Z,19.50
2018-09-02T20:29:09.113Z,19.60
2018-09-02T20:31:38.083Z,19.60
2018-09-02T20:34:06.310Z,19.50
2018-09-02T20:36:34.534Z,19.50
2018-09-02T20:39:03.649Z,19.50
2018-09-02T20:41:31.915Z,19.40
2018-09-02T20:44:00.122Z,19.40
2018-09-02T20:46:28.430Z,19.40
2018-09-02T20:48:56.711Z,19.40
2018-09-02T20:51:24.965Z,19.30
2018-09-02T20:53:53.614Z,19.30
2018-09-02T20:56:22.162Z,19.30
2018-09-02T20:58:50.642Z,19.30
2018-09-02T21:01:19.117Z,19.20
2018-09-02T21:03:47.345Z,19.10
2018-09-02T21:06:15.562Z,19.20
2018-09-02T21:08:43.814Z,19.10
2018-09-02T21:11:12.114Z,19.10
2018-09-02T21:13:40.386Z,19.10
2018-09-02T21:16:08.625Z,19.10
2018-09-02T21:18:36.893Z,18.90
2018-09-02T21:21:05.142Z,18.90
2018-09-02T21:23:33.350Z,18.90
2018-09-02T21:26:01.621Z,18.90
2018-09-02T21:28:29.888Z,18.80
2018-09-02T21:30:58.159Z,18.80
2018-09-02T21:33:26.375Z,18.70
2018-09-02T21:35:54.621Z,18.70
2018-09-02T21:38:22.889Z,18.60
2018-09-02T21:40:51.189Z,18.60
2018-09-02T21:43:19.482Z,18.70
2018-09-02T21:45:47.714Z,18.60
2018-09-02T21:48:15.981Z,18.50
2018-09-02T21:50:44.217Z,18.40
2018-09-02T21:53:12.641Z,18.50
2018-09-02T21:55:40.898Z,18.50
2018-09-02T21:58:09.213Z,18.50
2018-09-02T22:00:37.420Z,18.40
2018-09-02T22:03:05.813Z,18.40
2018-09-02T22:05:34.021Z,18.40
2018-09-02T22:08:02.257Z,18.40
2018-09-02T22:10:30.469Z,18.40
2018-09-02T22:12:58.794Z,18.40
2018-09-02T22:15:27.073Z,18.10
2018-09-02T22:17:55.390Z,18.00
2018-09-02T22:20:23.606Z,18.10
2018-09-02T22:22:51.806Z,18.10
2018-09-02T22:25:20.073Z,18.20
2018-09-02T22:27:48.305Z,18.30
2018-09-02T22:30:16.561Z,18.10
2018-09-02T22:32:44.901Z,18.10
2018-09-02T22:35:13.127Z,18.10
2018-09-02T22:37:42.391Z,18.10
2018-09-02T22:40:11.071Z,18.20
2018-09-02T22:42:39.356Z,18.10
2018-09-02T22:45:07.602Z,18.20
2018-09-02T22:48:00.309Z,18.10
2018-09-02T22:50:28.533Z,18.20
2018-09-02T22:52:56.825Z,18.20
2018-09-02T22:55:25.106Z,18.20
2018-09-02T22:57:53.589Z,18.20
2018-09-02T23:00:22.705Z,18.20
2018-09-02T23:02:50.994Z,18.30
2018-09-02T23:05:19.265Z,18.20
2018-09-02T23:07:47.525Z,18.20
2018-09-02T23:10:15.740Z,18.20
2018-09-02T23:12:43.989Z,18.30
2018-09-02T23:15:12.205Z,18.10
2018-09-02T23:17:40.457Z,18.10
2018-09-02T23:20:08.690Z,18.00
2018-09-02T23:22:36.962Z,18.00
2018-09-02T23:25:05.212Z,18.00
2018-09-02T23:27:33.494Z,18.10
2018-09-02T23:30:01.742Z,17.90
2018-09-02T23:32:30.010Z,17.90
2018-09-02T23:34:58.274Z,18.10
2018-09-02T23:37:26.617Z,18.10
2018-09-02T23:39:54.895Z,18.00
2018-09-02T23:42:23.166Z,17.90
2018-09-02T23:44:51.377Z,18.00
2018-09-02T23:47:19.678Z,18.00
2018-09-02T23:49:47.941Z,18.00
2018-09-02T23:52:16.176Z,18.10
2018-09-02T23:54:44.455Z,18.10
2018-09-02T23:57:12.709Z,17.90
2018-09-02T23:59:41.082Z,17.90
